Time;durP1;ratioP1;P1;durP2;ratioP2;P2;SDS_P1;SDS_P2;PMS_P1;PMS_P2;Temp;Humidity;BMP_temperature;BMP_pressure;BME280_temperature;BME280_humidity;BME280_pressure;Samples;Min_cycle;Max_cycle;Signal;HPM_P1;HPM_P2
2023/09/25 00:00:46;;;;;;;7.40;2.40;;;;;;;13.01;100.00;101957.91;5050144;28;20021;-68
2023/09/25 00:03:11;;;;;;;3.72;2.05;;;;;;;12.94;100.00;101955.22;5052492;28;20028;-69
2023/09/25 00:05:37;;;;;;;3.70;2.05;;;;;;;13.05;100.00;101957.25;5051938;28;20049;-69
2023/09/25 00:08:03;;;;;;;3.00;2.00;;;;;;;12.93;100.00;101959.81;5052903;28;20086;-69
2023/09/25 00:10:31;;;;;;;3.30;1.90;;;;;;;12.93;100.00;101951.66;5052322;28;20037;-69
2023/09/25 00:12:56;;;;;;;2.97;2.10;;;;;;;12.93;100.00;101951.66;5052377;28;20025;-69
2023/09/25 00:15:21;;;;;;;2.83;2.10;;;;;;;12.98;100.00;101955.63;5034363;28;20082;-69
2023/09/25 00:17:47;;;;;;;3.22;2.05;;;;;;;12.92;100.00;101958.16;5052153;28;20380;-67
2023/09/25 00:20:12;;;;;;;3.40;2.10;;;;;;;12.91;100.00;101950.22;5055698;28;20025;-68
2023/09/25 00:22:39;;;;;;;2.63;1.85;;;;;;;12.84;100.00;101955.66;5057436;28;20028;-68
2023/09/25 00:25:05;;;;;;;3.38;2.00;;;;;;;12.80;100.00;101959.00;5054081;28;20043;-68
2023/09/25 00:27:33;;;;;;;3.08;1.38;;;;;;;12.98;100.00;101967.31;5051273;28;20033;-68
2023/09/25 00:30:05;;;;;;;3.53;2.00;;;;;;;12.79;100.00;101960.03;5034480;28;20052;-68
2023/09/25 00:32:31;;;;;;;3.20;1.90;;;;;;;12.83;100.00;101962.16;5052107;28;20037;-69
2023/09/25 00:34:56;;;;;;;4.57;2.35;;;;;;;12.78;100.00;101956.50;5034465;28;20053;-69
2023/09/25 00:37:21;;;;;;;2.47;1.98;;;;;;;12.77;100.00;101965.69;5033518;28;20065;-68
2023/09/25 00:39:47;;;;;;;5.13;2.03;;;;;;;12.76;100.00;101955.91;5052170;28;20036;-68
2023/09/25 00:42:13;;;;;;;4.30;2.20;;;;;;;12.69;100.00;101960.50;5062218;28;20046;-69
2023/09/25 00:44:38;;;;;;;3.17;1.88;;;;;;;12.89;100.00;101964.00;5071808;28;20035;-68
2023/09/25 00:47:05;;;;;;;4.55;2.22;;;;;;;12.65;100.00;101967.38;5072264;28;20414;-68
2023/09/25 00:49:31;;;;;;;3.78;2.10;;;;;;;12.69;100.00;101960.50;5072001;28;20115;-69
2023/09/25 00:51:57;;;;;;;2.28;1.60;;;;;;;12.84;100.00;101971.94;5072178;28;20064;-69
2023/09/25 00:54:23;;;;;;;3.70;2.30;;;;;;;12.71;100.00;101966.53;5051236;28;20526;-69
2023/09/25 00:56:49;;;;;;;3.95;2.35;;;;;;;12.69;100.00;101963.22;5052050;28;20036;-69
2023/09/25 00:59:16;;;;;;;4.15;2.25;;;;;;;12.62;100.00;101967.81;5052364;28;20467;-68
2023/09/25 01:01:42;;;;;;;2.92;2.00;;;;;;;12.63;100.00;101969.50;5049453;28;20040;-69
2023/09/25 01:04:08;;;;;;;4.25;2.20;;;;;;;12.58;100.00;101970.13;5051843;28;20035;-69
2023/09/25 01:06:33;;;;;;;3.78;2.20;;;;;;;12.59;100.00;101963.63;5055407;28;20131;-69
2023/09/25 01:08:59;;;;;;;4.43;2.20;;;;;;;12.54;100.00;101966.16;5071727;28;20379;-69
2023/09/25 01:11:24;;;;;;;3.67;2.40;;;;;;;12.58;100.00;101965.53;5071792;28;20068;-69
2023/09/25 01:13:49;;;;;;;3.85;2.45;;;;;;;12.54;100.00;101971.59;5072194;28;20024;-68
2023/09/25 01:16:14;;;;;;;2.85;2.35;;;;;;;12.57;100.00;101976.59;5071631;28;20025;-69
2023/09/25 01:18:40;;;;;;;2.72;2.17;;;;;;;12.61;100.00;101974.31;5054167;28;20392;-69
2023/09/25 01:21:06;;;;;;;3.38;2.10;;;;;;;12.48;100.00;101978.69;5051582;28;20465;-68
2023/09/25 01:23:31;;;;;;;4.22;2.35;;;;;;;12.46;100.00;101969.94;5051655;28;20076;-70
2023/09/25 01:25:57;;;;;;;2.72;2.05;;;;;;;12.49;100.00;101955.94;5033483;28;20044;-69
2023/09/25 01:28:22;;;;;;;2.60;1.98;;;;;;;12.50;100.00;101959.47;5071097;28;20036;-69
2023/09/25 01:30:47;;;;;;;5.30;2.20;;;;;;;12.39;100.00;101961.81;5053599;28;20029;-68
2023/09/25 01:33:13;;;;;;;2.55;2.25;;;;;;;12.42;100.00;101965.94;5057248;28;20028;-68
2023/09/25 01:35:38;;;;;;;3.65;1.45;;;;;;;12.54;100.00;101960.72;5051269;28;20032;-69
2023/09/25 01:38:04;;;;;;;4.13;2.17;;;;;;;12.35;100.00;101956.97;5033816;28;20059;-69
2023/09/25 01:40:31;;;;;;;3.22;2.28;;;;;;;12.28;100.00;101957.00;5054774;28;20068;-69
2023/09/25 01:42:56;;;;;;;2.80;2.20;;;;;;;12.33;100.00;101954.47;5037046;28;20056;-70
2023/09/25 01:45:22;;;;;;;4.55;2.42;;;;;;;12.30;100.00;101954.06;5055391;28;20068;-69
2023/09/25 01:47:51;;;;;;;2.75;2.25;;;;;;;12.32;100.00;101957.41;5055215;28;20044;-69
2023/09/25 01:50:18;;;;;;;4.93;2.42;;;;;;;12.33;100.00;101959.06;5055312;28;20025;-69
2023/09/25 01:52:43;;;;;;;4.13;2.22;;;;;;;12.29;100.00;101957.81;5054971;28;20052;-69
2023/09/25 01:55:09;;;;;;;4.03;2.50;;;;;;;12.29;100.00;101960.53;5055117;28;20457;-68
2023/09/25 01:57:34;;;;;;;3.72;2.40;;;;;;;12.17;100.00;101952.22;5054746;28;20029;-68
2023/09/25 02:00:00;;;;;;;5.20;2.78;;;;;;;12.23;100.00;101956.78;5055030;28;20078;-68
2023/09/25 02:02:25;;;;;;;5.82;2.70;;;;;;;12.15;100.00;101948.84;5052734;28;20456;-69
2023/09/25 02:04:50;;;;;;;4.60;2.30;;;;;;;12.17;100.00;101944.88;5054634;28;20049;-68
2023/09/25 02:07:18;;;;;;;4.22;2.45;;;;;;;12.14;100.00;101953.44;5054996;28;20044;-69
2023/09/25 02:09:45;;;;;;;4.63;2.60;;;;;;;12.12;100.00;101947.38;5054674;28;20060;-68
2023/09/25 02:12:10;;;;;;;5.75;2.30;;;;;;;12.14;100.00;101945.31;5054256;28;20112;-68
2023/09/25 02:14:35;;;;;;;3.60;2.30;;;;;;;12.12;100.00;101947.38;5064972;28;20070;-69
2023/09/25 02:17:01;;;;;;;4.68;2.60;;;;;;;12.06;100.00;101948.22;5074578;28;20024;-69
2023/09/25 02:19:28;;;;;;;4.75;2.47;;;;;;;12.15;100.00;101935.28;5074666;28;20028;-69
2023/09/25 02:21:53;;;;;;;5.25;2.50;;;;;;;12.14;100.00;101930.88;5074361;28;20463;-69
2023/09/25 02:24:18;;;;;;;3.85;2.58;;;;;;;12.07;100.00;101930.91;5074653;28;20103;-69
2023/09/25 02:26:44;;;;;;;3.63;2.60;;;;;;;12.10;100.00;101941.34;5057781;28;20053;-68
2023/09/25 02:29:10;;;;;;;3.20;2.60;;;;;;;12.05;100.00;101938.41;5054257;28;20028;-69
2023/09/25 02:31:35;;;;;;;6.00;2.58;;;;;;;12.01;100.00;101945.28;5054541;28;20039;-69
2023/09/25 02:34:01;;;;;;;3.70;2.30;;;;;;;12.12;100.00;101941.94;5035949;28;20029;-68
2023/09/25 02:36:26;;;;;;;3.50;2.63;;;;;;;12.01;100.00;101943.41;5053988;28;20036;-67
2023/09/25 02:38:51;;;;;;;3.95;2.40;;;;;;;12.12;100.00;101941.94;5036850;28;20040;-68
2023/09/25 02:41:16;;;;;;;3.30;2.42;;;;;;;12.08;100.00;101939.88;5074235;28;20029;-67
2023/09/25 02:43:42;;;;;;;5.57;2.63;;;;;;;12.11;100.00;101945.72;5074003;28;20032;-68
2023/09/25 02:46:07;;;;;;;2.15;1.52;;;;;;;12.23;100.00;101938.63;5061834;28;20044;-68
2023/09/25 02:48:32;;;;;;;3.60;2.50;;;;;;;12.09;100.00;101938.81;5053877;28;20074;-68
2023/09/25 02:50:58;;;;;;;3.35;2.40;;;;;;;12.10;100.00;101941.34;5053051;28;20025;-68
2023/09/25 02:53:25;;;;;;;4.03;2.50;;;;;;;12.12;100.00;101933.81;5053742;28;20420;-68
2023/09/25 02:55:50;;;;;;;4.45;2.40;;;;;;;12.02;100.00;101942.38;5035877;28;20036;-68
2023/09/25 02:58:16;;;;;;;4.93;1.77;;;;;;;12.22;100.00;101941.53;5053845;28;20029;-68
2023/09/25 03:00:41;;;;;;;3.03;2.65;;;;;;;12.15;100.00;101936.13;5050722;28;20155;-68
2023/09/25 03:03:07;;;;;;;4.50;2.75;;;;;;;12.08;100.00;101935.28;5053860;28;20032;-68
2023/09/25 03:05:32;;;;;;;4.50;2.55;;;;;;;12.06;100.00;101937.34;5054621;28;20048;-68
2023/09/25 03:07:57;;;;;;;5.03;2.80;;;;;;;12.09;100.00;101930.69;5054069;28;20082;-68
2023/09/25 03:10:23;;;;;;;5.68;2.63;;;;;;;12.07;100.00;101936.31;5053687;28;20056;-68
2023/09/25 03:12:48;;;;;;;3.72;2.53;;;;;;;12.05;100.00;101941.13;5053169;28;20025;-68
2023/09/25 03:15:13;;;;;;;3.53;2.60;;;;;;;12.09;100.00;101946.97;5035307;28;20119;-67
2023/09/25 03:17:39;;;;;;;2.70;1.52;;;;;;;12.20;100.00;101938.22;5052973;28;20171;-68
2023/09/25 03:20:09;;;;;;;3.75;2.40;;;;;;;12.06;100.00;101942.78;5053470;28;20465;-67
2023/09/25 03:22:35;;;;;;;3.85;2.40;;;;;;;11.99;100.00;101939.25;5035240;28;20421;-68
2023/09/25 03:25:00;;;;;;;4.65;2.53;;;;;;;12.02;100.00;101936.13;5053132;28;20094;-68
2023/09/25 03:27:26;;;;;;;3.40;2.60;;;;;;;11.94;100.00;101934.47;5053219;28;20057;-68
2023/09/25 03:29:51;;;;;;;4.40;2.50;;;;;;;11.97;100.00;101944.03;5055929;28;20472;-68
2023/09/25 03:32:16;;;;;;;3.95;2.50;;;;;;;11.94;100.00;101939.88;5073262;28;20029;-68
2023/09/25 03:34:42;;;;;;;2.60;1.60;;;;;;;12.11;100.00;101945.72;5072686;28;20110;-68
2023/09/25 03:37:07;;;;;;;2.83;2.33;;;;;;;12.01;100.00;101940.69;5073255;28;20582;-68
2023/09/25 03:39:32;;;;;;;5.45;2.35;;;;;;;12.02;100.00;101934.25;5073010;28;20152;-68
2023/09/25 03:41:58;;;;;;;4.60;2.60;;;;;;;12.06;100.00;101929.22;5072903;28;20028;-68
2023/09/25 03:44:23;;;;;;;3.63;2.25;;;;;;;12.15;100.00;101929.84;5066868;28;20026;-68
2023/09/25 03:46:48;;;;;;;4.00;2.78;;;;;;;12.00;100.00;101938.19;5052793;28;20025;-67
2023/09/25 03:49:14;;;;;;;3.53;2.50;;;;;;;12.00;100.00;101930.91;5052986;28;20025;-68
2023/09/25 03:51:39;;;;;;;5.03;2.85;;;;;;;11.97;100.00;101935.91;5034786;28;20037;-69
2023/09/25 03:54:04;;;;;;;6.43;2.00;;;;;;;12.11;100.00;101940.28;5052605;28;20427;-68
2023/09/25 03:56:30;;;;;;;3.40;1.92;;;;;;;12.12;100.00;101936.53;5053001;28;20032;-68
2023/09/25 03:58:55;;;;;;;4.57;2.70;;;;;;;11.97;100.00;101933.19;5052011;28;20075;-68
2023/09/25 04:01:21;;;;;;;5.45;2.65;;;;;;;11.94;100.00;101944.44;5032492;28;20045;-68
2023/09/25 04:03:46;;;;;;;4.53;2.50;;;;;;;11.87;100.00;101942.53;5051827;28;20037;-69
2023/09/25 04:06:12;;;;;;;4.53;1.63;;;;;;;12.07;100.00;101949.88;5052736;28;20049;-68
2023/09/25 04:08:37;;;;;;;4.00;2.70;;;;;;;11.86;100.00;101946.28;5052439;28;20031;-67
2023/09/25 04:11:03;;;;;;;4.13;2.60;;;;;;;11.86;100.00;101943.56;5052538;28;20057;-68
2023/09/25 04:13:28;;;;;;;6.05;2.60;;;;;;;11.86;100.00;101938.16;5052021;28;20456;-68
2023/09/25 04:15:54;;;;;;;5.75;2.95;;;;;;;11.90;100.00;101949.44;5052019;28;20037;-68
2023/09/25 04:18:20;;;;;;;5.07;2.60;;;;;;;11.92;100.00;101949.22;5052533;28;20036;-68
2023/09/25 04:20:46;;;;;;;4.43;2.90;;;;;;;11.82;100.00;101953.19;5034717;28;20032;-68
2023/09/25 04:23:12;;;;;;;3.17;2.30;;;;;;;11.85;100.00;101941.06;5069555;28;20373;-68
2023/09/25 04:25:38;;;;;;;5.35;2.63;;;;;;;11.82;100.00;101936.91;5071936;28;20111;-68
2023/09/25 04:28:05;;;;;;;3.72;2.00;;;;;;;11.98;100.00;101945.72;5072415;28;20032;-68
2023/09/25 04:30:31;;;;;;;9.13;3.00;;;;;;;11.86;100.00;101943.56;5042302;28;20036;-68
2023/09/25 04:32:57;;;;;;;4.50;2.90;;;;;;;11.81;100.00;101946.06;5041430;28;20041;-68
2023/09/25 04:35:23;;;;;;;4.93;2.90;;;;;;;11.85;100.00;101946.50;5052287;28;20032;-69
2023/09/25 04:37:49;;;;;;;6.60;2.88;;;;;;;11.84;100.00;101945.66;5051970;28;20037;-69
2023/09/25 04:40:22;;;;;;;4.57;2.53;;;;;;;11.88;100.00;101955.06;5052219;28;20392;-69
2023/09/25 04:42:52;;;;;;;3.80;1.95;;;;;;;12.01;100.00;101958.88;5051993;28;20029;-68
2023/09/25 04:45:19;;;;;;;5.90;2.67;;;;;;;11.89;100.00;101958.59;5051723;28;20116;-68
2023/09/25 04:47:51;;;;;;;7.15;3.10;;;;;;;11.87;100.00;101958.81;5066904;28;20033;-69
2023/09/25 04:50:18;;;;;;;1.92;1.60;;;;;;;12.04;100.00;101955.72;5072211;28;20099;-68
2023/09/25 04:52:45;;;;;;;2.35;1.73;;;;;;;12.08;100.00;101957.00;5071936;28;20043;-68
2023/09/25 04:55:12;;;;;;;4.50;2.20;;;;;;;12.10;100.00;101960.31;5072034;28;20533;-69
2023/09/25 04:57:42;;;;;;;3.45;2.70;;;;;;;11.92;100.00;101960.91;5072069;28;20024;-68
2023/09/25 05:00:17;;;;;;;5.88;3.10;;;;;;;11.93;100.00;101959.91;5058699;28;20036;-68
2023/09/25 05:02:44;;;;;;;4.30;2.83;;;;;;;11.91;100.00;101961.94;5049746;28;20124;-69
2023/09/25 05:05:10;;;;;;;8.23;2.72;;;;;;;11.88;100.00;101963.19;5052082;28;20049;-69
2023/09/25 05:07:35;;;;;;;4.22;2.00;;;;;;;12.03;100.00;101965.75;5052101;28;20033;-68
2023/09/25 05:10:00;;;;;;;2.72;1.85;;;;;;;12.03;100.00;101960.34;5051563;28;20119;-68
2023/09/25 05:12:26;;;;;;;4.55;2.95;;;;;;;11.91;100.00;101967.34;5052060;28;20039;-68
2023/09/25 05:14:52;;;;;;;5.18;2.80;;;;;;;11.89;100.00;101958.59;5053875;28;20040;-68
2023/09/25 05:17:17;;;;;;;3.90;2.50;;;;;;;11.88;100.00;101967.78;5055811;28;20025;-69
2023/09/25 05:19:42;;;;;;;4.03;2.15;;;;;;;12.02;100.00;101964.09;5055255;28;20032;-68
2023/09/25 05:22:09;;;;;;;3.92;2.50;;;;;;;11.87;100.00;101972.38;5055518;28;20025;-69
2023/09/25 05:24:34;;;;;;;3.08;1.92;;;;;;;12.04;100.00;101972.00;5055435;28;20503;-69
2023/09/25 05:27:00;;;;;;;5.32;2.60;;;;;;;11.92;100.00;101970.94;5055485;28;20037;-68
2023/09/25 05:29:25;;;;;;;3.92;2.70;;;;;;;11.91;100.00;101961.94;5055088;28;20104;-69
2023/09/25 05:31:51;;;;;;;5.57;1.98;;;;;;;12.06;100.00;101972.63;5055628;28;20116;-69
2023/09/25 05:34:16;;;;;;;7.13;3.00;;;;;;;11.97;100.00;101971.16;5037582;28;20399;-69
2023/09/25 05:36:41;;;;;;;7.70;3.10;;;;;;;11.96;100.00;101972.22;5055176;28;20033;-69
2023/09/25 05:39:08;;;;;;;4.32;2.83;;;;;;;11.95;100.00;101973.25;5054586;28;20373;-68
2023/09/25 05:41:33;;;;;;;6.55;2.10;;;;;;;12.06;100.00;101967.19;5048550;28;20032;-68
2023/09/25 05:43:59;;;;;;;4.88;1.95;;;;;;;12.08;100.00;101973.28;5071439;28;20376;-69
2023/09/25 05:46:25;;;;;;;6.07;2.00;;;;;;;12.11;100.00;101982.84;5075252;28;20406;-68
2023/09/25 05:48:53;;;;;;;4.75;3.00;;;;;;;11.92;100.00;101977.19;5075065;28;20398;-69
2023/09/25 05:51:18;;;;;;;6.32;3.30;;;;;;;11.94;100.00;101977.84;5075280;28;20043;-69
2023/09/25 05:53:44;;;;;;;5.85;2.95;;;;;;;11.94;100.00;101977.00;5074903;28;20029;-68
2023/09/25 05:56:09;;;;;;;5.20;3.20;;;;;;;11.94;100.00;101987.84;5058383;28;20029;-69
2023/09/25 05:58:35;;;;;;;2.83;2.03;;;;;;;12.08;100.00;101981.41;5036514;28;20036;-69
2023/09/25 06:01:01;;;;;;;5.55;2.92;;;;;;;11.98;100.00;101978.25;5034533;28;20468;-68
2023/09/25 06:03:27;;;;;;;6.60;3.03;;;;;;;12.02;100.00;101977.66;5055028;28;20029;-68
2023/09/25 06:05:52;;;;;;;4.72;2.55;;;;;;;12.00;100.00;101984.31;5054594;28;20053;-68
2023/09/25 06:08:17;;;;;;;10.38;2.92;;;;;;;12.06;100.00;101991.63;5054898;28;20033;-69
2023/09/25 06:10:44;;;;;;;6.68;2.00;;;;;;;12.19;100.00;101988.09;5050090;28;20032;-68
2023/09/25 06:13:09;;;;;;;5.53;2.97;;;;;;;12.15;100.00;101986.84;5074795;28;20024;-67
2023/09/25 06:15:37;;;;;;;5.95;2.90;;;;;;;12.11;100.00;101989.13;5075097;28;20181;-69
2023/09/25 06:18:07;;;;;;;4.47;2.20;;;;;;;12.22;100.00;101993.09;5063488;28;20112;-69
2023/09/25 06:20:36;;;;;;;5.63;2.10;;;;;;;12.27;100.00;101987.06;5036719;28;20020;-72
2023/09/25 06:23:02;;;;;;;5.68;3.40;;;;;;;12.18;100.00;101984.56;5054363;28;20032;-74
2023/09/25 06:25:29;;;;;;;6.05;2.90;;;;;;;12.26;100.00;101986.22;5062762;28;20479;-69
2023/09/25 06:27:55;;;;;;;3.50;1.90;;;;;;;12.33;100.00;101986.22;5073511;28;20032;-69
2023/09/25 06:30:20;;;;;;;6.78;2.95;;;;;;;12.29;100.00;101987.66;5073608;28;20096;-71
2023/09/25 06:32:46;;;;;;;3.70;2.90;;;;;;;12.31;100.00;101993.75;5073613;28;20049;-73
2023/09/25 06:35:12;;;;;;;6.10;3.28;;;;;;;12.28;100.00;101986.84;5074123;28;20033;-69
2023/09/25 06:37:37;;;;;;;6.28;3.00;;;;;;;12.34;100.00;101991.44;5072041;28;20032;-72
2023/09/25 06:40:09;;;;;;;7.22;3.42;;;;;;;12.35;100.00;101984.13;5064283;28;20026;-71
2023/09/25 06:42:34;;;;;;;2.45;1.70;;;;;;;12.50;100.00;101992.91;5052711;28;20039;-71
2023/09/25 06:45:00;;;;;;;8.35;3.20;;;;;;;12.42;100.00;101993.09;5053264;28;20025;-71
2023/09/25 06:47:25;;;;;;;4.18;3.08;;;;;;;12.46;100.00;101996.25;5064709;28;20039;-73
2023/09/25 06:49:51;;;;;;;4.20;2.00;;;;;;;12.59;100.00;102001.66;5073448;28;20034;-72
2023/09/25 06:52:16;;;;;;;8.15;3.00;;;;;;;12.50;100.00;101994.75;5074203;28;20032;-75
2023/09/25 06:54:41;;;;;;;5.45;2.92;;;;;;;12.54;100.00;101994.13;5073937;28;20185;-73
2023/09/25 06:57:07;;;;;;;5.07;2.60;;;;;;;12.58;100.00;101995.41;5073319;28;20031;-73
2023/09/25 06:59:34;;;;;;;8.82;3.17;;;;;;;12.64;100.00;101995.63;5073906;28;20090;-71
2023/09/25 07:01:59;;;;;;;5.10;2.78;;;;;;;12.68;100.00;102000.41;5053241;28;20376;-72
2023/09/25 07:04:24;;;;;;;5.60;2.80;;;;;;;12.75;100.00;101994.97;5073779;28;20064;-71
2023/09/25 07:06:50;;;;;;;4.90;2.63;;;;;;;12.81;100.00;101988.69;5064438;28;20043;-70
2023/09/25 07:09:15;;;;;;;5.07;2.83;;;;;;;12.85;100.00;101987.22;5069536;28;20040;-70
2023/09/25 07:11:41;;;;;;;3.65;2.80;;;;;;;12.94;100.00;101985.94;5073558;28;20024;-69
2023/09/25 07:14:06;;;;;;;2.97;2.20;;;;;;;13.02;100.00;101994.91;5073291;28;20497;-69
2023/09/25 07:16:32;;;;;;;2.78;1.70;;;;;;;13.10;100.00;101995.53;5073445;28;20025;-71
2023/09/25 07:18:58;;;;;;;5.15;2.50;;;;;;;13.16;100.00;101996.53;5055876;28;20566;-75
2023/09/25 07:21:24;;;;;;;7.20;2.70;;;;;;;13.22;100.00;101998.38;5057256;28;20032;-73
2023/09/25 07:23:50;;;;;;;4.72;2.70;;;;;;;13.24;100.00;101996.31;5073892;28;20246;-73
2023/09/25 07:26:17;;;;;;;3.25;2.47;;;;;;;13.34;100.00;102004.00;5073390;28;20520;-73
2023/09/25 07:28:45;;;;;;;3.88;2.50;;;;;;;13.42;100.00;102000.22;5073510;28;20051;-70
2023/09/25 07:31:11;;;;;;;3.42;2.40;;;;;;;13.53;100.00;101988.69;5071080;28;20039;-71
2023/09/25 07:33:37;;;;;;;2.97;2.20;;;;;;;13.59;100.00;101995.97;5073191;28;20036;-72
2023/09/25 07:36:03;;;;;;;4.65;1.27;;;;;;;13.67;100.00;101991.34;5072926;28;20495;-71
2023/09/25 07:38:29;;;;;;;3.47;2.13;;;;;;;13.72;100.00;101999.66;5054966;28;20112;-72
2023/09/25 07:40:54;;;;;;;2.88;2.25;;;;;;;13.73;100.00;101996.72;5072977;28;20506;-69
2023/09/25 07:43:20;;;;;;;3.05;2.30;;;;;;;13.80;100.00;101992.09;5073011;28;20036;-72
2023/09/25 07:45:48;;;;;;;2.60;2.38;;;;;;;13.85;100.00;101996.03;5073205;28;20094;-72
2023/09/25 07:48:16;;;;;;;2.28;1.50;;;;;;;13.90;100.00;101999.75;5054982;28;20025;-74
2023/09/25 07:50:42;;;;;;;3.78;2.22;;;;;;;13.93;100.00;101991.16;5073209;28;20035;-73
2023/09/25 07:53:08;;;;;;;3.88;2.10;;;;;;;13.93;100.00;101987.59;5072708;28;20470;-74
2023/09/25 07:55:33;;;;;;;5.57;2.20;;;;;;;14.04;100.00;101994.22;5070820;28;20035;-71
2023/09/25 07:57:59;;;;;;;3.38;2.00;;;;;;;14.06;100.00;101992.97;5057094;28;20109;-72
2023/09/25 08:00:25;;;;;;;3.67;2.28;;;;;;;14.09;100.00;101992.53;5068718;28;20468;-75
2023/09/25 08:02:52;;;;;;;4.95;2.45;;;;;;;14.12;100.00;101993.97;5050011;28;20066;-74
2023/09/25 08:05:18;;;;;;;3.90;2.00;;;;;;;14.14;100.00;102002.75;5052771;28;20481;-74
2023/09/25 08:07:50;;;;;;;3.72;2.20;;;;;;;14.15;100.00;102007.97;5051258;28;20024;-71
2023/09/25 08:10:17;;;;;;;5.40;2.28;;;;;;;14.21;100.00;101997.25;5053213;28;20029;-73
2023/09/25 08:12:43;;;;;;;5.25;2.30;;;;;;;14.25;100.00;101993.88;5035221;28;20102;-73
2023/09/25 08:15:09;;;;;;;2.83;1.98;;;;;;;14.28;100.00;102001.59;5059981;28;20352;-73
2023/09/25 08:17:34;;;;;;;5.07;2.40;;;;;;;14.28;100.00;102001.59;5076715;28;20036;-73
2023/09/25 08:20:00;;;;;;;4.30;2.30;;;;;;;14.27;100.00;101997.19;5062901;28;20380;-72
2023/09/25 08:22:26;;;;;;;3.97;2.30;;;;;;;14.31;100.00;102003.88;5063821;28;20032;-73
2023/09/25 08:24:51;;;;;;;5.18;2.22;;;;;;;14.32;100.00;101994.63;5072995;28;20047;-73
2023/09/25 08:27:18;;;;;;;4.72;2.13;;;;;;;14.35;100.00;101998.81;5072920;28;20032;-72
2023/09/25 08:29:44;;;;;;;5.20;2.50;;;;;;;14.34;100.00;102000.72;5054505;28;20380;-73
2023/09/25 08:32:09;;;;;;;3.03;2.40;;;;;;;14.44;100.00;102005.63;5072131;28;20483;-73
2023/09/25 08:34:35;;;;;;;4.47;2.65;;;;;;;14.47;100.00;101994.31;5072392;28;20029;-72
2023/09/25 08:37:00;;;;;;;3.42;2.28;;;;;;;14.51;100.00;101992.81;5072159;28;20113;-72
2023/09/25 08:39:26;;;;;;;3.72;2.30;;;;;;;14.57;100.00;101980.19;5072034;28;20112;-73
2023/09/25 08:41:51;;;;;;;3.10;2.33;;;;;;;14.63;100.00;101986.63;5072524;28;20043;-73
2023/09/25 08:44:17;;;;;;;4.30;2.47;;;;;;;14.68;100.00;101984.91;5054254;28;20444;-72
2023/09/25 08:46:44;;;;;;;3.83;2.38;;;;;;;14.76;100.00;101985.69;5065519;28;20112;-72
2023/09/25 08:49:10;;;;;;;5.38;2.20;;;;;;;14.83;100.00;101978.28;5056658;28;20063;-72
2023/09/25 08:51:38;;;;;;;9.55;2.50;;;;;;;14.88;100.00;101981.97;5048664;28;20472;-72
2023/09/25 08:54:03;;;;;;;4.57;2.30;;;;;;;14.96;100.00;101982.75;5076017;28;20332;-74
2023/09/25 08:56:31;;;;;;;5.18;2.42;;;;;;;15.05;100.00;101973.19;5060527;28;20031;-74
2023/09/25 08:59:00;;;;;;;3.20;2.38;;;;;;;15.10;100.00;101973.38;5055862;28;20033;-74
2023/09/25 09:01:26;;;;;;;6.82;2.50;;;;;;;15.21;100.00;101975.31;5036172;28;20029;-75
2023/09/25 09:03:51;;;;;;;3.90;2.30;;;;;;;15.26;100.00;101971.91;5055874;28;20459;-74
2023/09/25 09:06:17;;;;;;;5.15;2.22;;;;;;;15.33;100.00;101977.28;5055327;28;20468;-75
2023/09/25 09:08:47;;;;;;;4.57;2.58;;;;;;;15.32;100.00;101984.63;5038244;28;20033;-75
2023/09/25 09:11:13;;;;;;;5.30;2.40;;;;;;;15.41;100.00;101976.97;5038104;28;20406;-74
2023/09/25 09:13:48;;;;;;;7.00;2.10;;;;;;;15.47;100.00;101978.75;5071424;28;20405;-75
2023/09/25 09:16:15;;;;;;;6.00;2.50;;;;;;;15.52;100.00;101981.66;5044397;28;20585;-74
2023/09/25 09:18:41;;;;;;;3.88;2.30;;;;;;;15.59;100.00;101970.63;5055902;28;20025;-75
2023/09/25 09:21:19;;;;;;;3.50;2.17;;;;;;;15.65;100.00;101974.34;5055389;28;20028;-76
2023/09/25 09:23:44;;;;;;;9.18;2.22;;;;;;;15.66;100.00;101971.38;5056080;28;20067;-76
2023/09/25 09:26:12;;;;;;;5.55;2.03;;;;;;;15.67;100.00;101972.19;5058067;28;20052;-76
2023/09/25 09:28:37;;;;;;;4.78;2.30;;;;;;;15.71;100.00;101974.22;5057686;28;20025;-79
2023/09/25 09:31:07;;;;;;;4.28;2.30;;;;;;;15.70;100.00;101977.19;5038744;28;20357;-72
2023/09/25 09:33:33;;;;;;;4.70;2.33;;;;;;;15.69;100.00;101976.38;5055834;28;20108;-74
2023/09/25 09:35:59;;;;;;;3.25;2.08;;;;;;;15.71;100.00;101974.22;5037621;28;20440;-76
2023/09/25 09:38:25;;;;;;;2.15;1.95;;;;;;;15.77;100.00;101978.78;5056342;28;20032;-75
2023/09/25 09:40:51;;;;;;;3.45;2.20;;;;;;;15.84;100.00;101978.72;5037215;28;20032;-74
2023/09/25 09:43:16;;;;;;;4.63;2.28;;;;;;;15.87;100.00;101982.88;5055290;28;20365;-74
2023/09/25 09:45:45;;;;;;;5.78;2.17;;;;;;;15.95;100.00;101986.09;5053829;28;20064;-73
2023/09/25 09:48:13;;;;;;;5.72;2.13;;;;;;;16.02;100.00;101982.41;5059922;28;20033;-73
2023/09/25 09:50:44;;;;;;;4.80;2.30;;;;;;;16.09;100.00;101989.47;5075333;28;20033;-73
2023/09/25 09:53:10;;;;;;;;;;;;;;;16.14;100.00;101991.50;5075406;28;20086;-71
2023/09/25 09:55:36;;;;;;;7.30;2.63;;;;;;;16.23;100.00;101994.69;5057291;28;20298;-73
2023/09/25 09:58:03;;;;;;;7.38;2.22;;;;;;;16.28;100.00;101995.66;5073242;28;20552;-73
2023/09/25 10:00:28;;;;;;;3.83;2.10;;;;;;;16.34;100.00;101988.44;5072655;28;20031;-73
2023/09/25 10:02:55;;;;;;;5.15;2.22;;;;;;;16.32;100.00;101987.00;5057106;28;20115;-73
2023/09/25 10:05:21;;;;;;;4.00;2.20;;;;;;;16.34;100.00;101991.16;5041593;28;20056;-73
2023/09/25 10:08:03;;;;;;;4.90;2.08;;;;;;;16.45;100.00;101984.88;5057514;28;20491;-73
2023/09/25 10:10:29;;;;;;;4.38;1.98;;;;;;;16.53;100.00;101985.59;5054571;28;20037;-74
2023/09/25 10:12:56;;;;;;;4.72;2.17;;;;;;;16.60;100.00;101995.31;5055026;28;20472;-74
2023/09/25 10:15:25;;;;;;;3.35;1.88;;;;;;;16.64;100.00;101988.31;5054962;28;20037;-74
2023/09/25 10:17:52;;;;;;;4.35;1.90;;;;;;;16.72;100.00;101989.03;5066513;28;20111;-74
2023/09/25 10:20:26;;;;;;;5.03;2.00;;;;;;;16.78;100.00;101988.91;5056668;28;20040;-73
2023/09/25 10:22:52;;;;;;;3.38;2.00;;;;;;;16.83;100.00;101983.56;5074778;28;20028;-74
2023/09/25 10:25:17;;;;;;;3.20;1.83;;;;;;;16.92;100.00;101988.69;5056671;28;20819;-74
2023/09/25 10:27:47;;;;;;;2.38;1.77;;;;;;;17.00;100.00;101985.59;5038273;28;20036;-74
2023/09/25 10:30:16;;;;;;;3.93;1.90;;;;;;;17.05;100.00;101977.50;5065252;28;20079;-75
2023/09/25 10:32:49;;;;;;;3.97;1.88;;;;;;;17.09;97.83;101988.78;5074816;28;20021;-75
2023/09/25 10:35:37;;;;;;;3.70;1.67;;;;;;;17.14;93.67;101991.63;5056313;28;20059;-74
2023/09/25 10:38:28;;;;;;;3.45;1.77;;;;;;;17.20;99.57;101998.88;5055924;28;20109;-74
2023/09/25 10:40:55;;;;;;;3.88;1.80;;;;;;;17.27;100.00;101995.97;5062435;28;20064;-73
2023/09/25 10:43:22;;;;;;;2.50;1.88;;;;;;;17.26;93.93;101995.16;5074106;28;20103;-74
2023/09/25 10:45:49;;;;;;;5.53;1.90;;;;;;;17.32;98.67;101986.00;5054624;28;20036;-74
2023/09/25 10:48:14;;;;;;;4.90;2.13;;;;;;;17.37;100.00;101979.78;5066580;28;20037;-73
2023/09/25 10:50:43;;;;;;;3.75;1.90;;;;;;;17.42;92.21;101992.72;5042965;28;20115;-74
2023/09/25 10:53:08;;;;;;;3.88;1.73;;;;;;;17.45;85.96;101979.41;5035850;28;20072;-74
2023/09/25 10:55:35;;;;;;;2.53;1.73;;;;;;;17.53;93.21;101984.47;5036834;28;20068;-74
2023/09/25 10:58:02;;;;;;;2.67;1.63;;;;;;;17.53;85.03;101984.47;5073987;28;20117;-74
2023/09/25 11:00:28;;;;;;;4.25;1.77;;;;;;;17.63;90.82;101985.75;5054235;28;20170;-75
2023/09/25 11:02:54;;;;;;;5.40;1.90;;;;;;;17.71;92.83;101985.38;5073848;28;20111;-73
2023/09/25 11:05:21;;;;;;;4.10;2.00;;;;;;;17.80;94.29;101983.03;5070533;28;20052;-74
2023/09/25 11:07:47;;;;;;;2.20;1.70;;;;;;;17.81;84.82;101991.00;5040186;28;20033;-74
2023/09/25 11:10:13;;;;;;;4.97;1.80;;;;;;;17.81;86.13;101999.22;5055724;28;20384;-74
2023/09/25 11:12:40;;;;;;;2.95;1.67;;;;;;;17.86;84.40;101990.28;5073360;28;20024;-75